Air Resources Laboratory banner image
Air Resources Laboratory web site National Oceanic and Atmospheric Administration (NOAA)

co metar


KAFF 141058Z AUTO 01009KT 10SM CLR 10/08 A3015 RMK AO2 SLP118 T01040083=
KAKO 141053Z AUTO 03003KT 10SM CLR 13/13 A3005 RMK AO2 SLP122 T01330133=
KALS 141052Z AUTO 21004KT 10SM CLR 07/03 A3022 RMK AO2 SLP143 T00670033 $=
KAPA 141053Z 28006KT 10SM CLR 17/11 A3012 RMK AO2 SLP122 T01670106=
KASE 141053Z AUTO 19005KT 10SM FU CLR 10/02 A3024 RMK AO2 SLP112 T01000022=
KBJC 141053Z AUTO 34007KT 10SM CLR 16/14 A3012 RMK AO2=
KBKF 141058Z 28005KT 10SM CLR 15/12 A3011 RMK AO2A SLP117 T01490120=
KCAG 141053Z AUTO 07003KT 10SM CLR 12/07 A3014 RMK AO2 SLP137 T01170067=
KCEZ 141053Z AUTO 09003KT 8SM CLR 13/06 A3009 RMK AO2 SLP099 T01330056=
KCOS 141054Z 00000KT 10SM CLR 14/12 A3014 RMK AO2 SLP117 T01390117=
KDEN 141053Z 27009KT 9SM CLR 14/12 A3008 RMK AO2 SLP105 T01440117=
KDRO 141053Z AUTO 04005KT 10SM CLR 10/04 A3015 RMK AO2 SLP135 T01000044 $=
KEEO 141053Z AUTO 06004KT 10SM CLR 12/03 A3015 RMK AO2 SLP120 T01170028=
KEGE 141056Z AUTO 05003KT 10SM CLR 11/04 A3021 RMK AO2 SLP161 T01060039=
KFCS 141058Z AUTO 00000KT 10SM CLR 13/11 A3011 RMK AO2 SLP139 T01310105 $=
KFNL 141056Z AUTO 01005KT 10SM CLR 16/14 A3009 RMK AO2 SLP122 T01560139=
KFTG 141048Z AUTO 25006KT 10SM CLR 15/12 A3010 RMK AO2 T01450121=
KGJT 141053Z AUTO 12003KT 10SM CLR 18/04 A2999 RMK AO2 SLP081 T01780044=
KGUC 141056Z AUTO 00000KT 10SM CLR 07/04 A3027 RMK AO2 SLP171 T00670044=
KGXY 141056Z AUTO 02005KT 10SM CLR 14/14 A3008 RMK AO2 SLP140 T01440139=
KHDN 141056Z AUTO 10008KT 10SM CLR 13/04 A3017 RMK AO2 SLP131 T01330039=
KITR 141053Z AUTO 04003KT 10SM OVC006 17/15 A3003 RMK AO2 SLP116 T01670150=
KLAA 141053Z AUTO 16005KT 6SM BR OVC003 18/17 A2997 RMK AO2 SLP094 T01780167=
KLHX 141053Z AUTO 36004KT 10SM OVC007 18/16 A3002 RMK AO2 SLP098 T01830161=
KLIC 141055Z AUTO 00000KT 1/2SM FG VV002 14/14 A3010 RMK AO2 SLP113 T01440144=
KLXV 141053Z AUTO 06004KT 10SM CLR 04/M01 A3040 RMK AO2 SLP128 T00391006=
KMTJ 141053Z AUTO 16007KT 10SM CLR 14/04 A3010 RMK AO2 SLP100 T01440039=
KPUB 141053Z AUTO 36005KT 10SM BKN014 16/13 A3005 RMK AO2 SLP110 T01610133=
KRIL 141053Z AUTO 00000KT 9SM CLR 14/07 A3009 RMK AO2 SLP114 T01440067=
KSBS 141055Z AUTO 00000KT 10SM CLR 10/03 A3018 RMK AO1 T00980033=
KSPD 141056Z AUTO 10005KT 16/16 A2999 RMK AO1 SLP095 T01560156=
KTEX 141055Z AUTO 16004KT 10SM CLR 12/00 A3036 RMK AO2=